Time;durP1;ratioP1;P1;durP2;ratioP2;P2;SDS_P1;SDS_P2;PMS_P1;PMS_P2;Temp;Humidity;BMP_temperature;BMP_pressure;BME280_temperature;BME280_humidity;BME280_pressure;Samples;Min_cycle;Max_cycle;Signal;HPM_P1;HPM_P2
2022/08/27 00:01:32;;;;;;;6.35;2.75;;;;;;;11.92;100.00;101935.47;5093337;28;20115;-78
2022/08/27 00:03:58;;;;;;;7.72;3.22;;;;;;;11.92;100.00;101938.13;5093000;28;20536;-78
2022/08/27 00:06:25;;;;;;;6.28;3.08;;;;;;;11.92;100.00;101935.47;5093238;28;20024;-78
2022/08/27 00:08:52;;;;;;;7.38;3.03;;;;;;;11.97;100.00;101928.00;5074397;28;20440;-77
2022/08/27 00:11:19;;;;;;;4.88;2.70;;;;;;;12.01;100.00;101939.25;5093447;28;20107;-78
2022/08/27 00:13:45;;;;;;;8.15;3.45;;;;;;;12.04;100.00;101935.50;5092731;28;20067;-78
2022/08/27 00:16:13;;;;;;;4.78;2.58;;;;;;;12.04;100.00;101933.69;5092925;28;20028;-78
2022/08/27 00:18:39;;;;;;;5.57;2.58;;;;;;;12.06;100.00;101926.41;5093273;28;20074;-78
2022/08/27 00:21:05;;;;;;;10.27;3.10;;;;;;;12.05;100.00;101926.53;5074505;28;20032;-78
2022/08/27 00:23:31;;;;;;;6.28;2.90;;;;;;;12.02;100.00;101924.09;5093137;28;20445;-78
2022/08/27 00:25:57;;;;;;;4.60;2.95;;;;;;;12.02;100.00;101919.63;5074902;28;20114;-78
2022/08/27 00:28:27;;;;;;;5.35;2.65;;;;;;;11.95;100.00;101916.59;5074764;28;20479;-78
2022/08/27 00:30:54;;;;;;;5.80;2.88;;;;;;;11.95;100.00;101913.06;5092303;28;20101;-78
2022/08/27 00:33:20;;;;;;;4.15;2.50;;;;;;;11.90;100.00;101915.25;5092802;28;20114;-77
2022/08/27 00:35:46;;;;;;;3.78;2.53;;;;;;;11.86;100.00;101919.94;5092427;28;20032;-78
2022/08/27 00:38:11;;;;;;;7.40;3.20;;;;;;;11.85;100.00;101920.91;5092531;28;20388;-77
2022/08/27 00:40:37;;;;;;;3.25;2.53;;;;;;;11.78;100.00;101912.56;5092792;28;20032;-77
2022/08/27 00:43:02;;;;;;;6.20;2.72;;;;;;;11.74;100.00;101921.75;5091820;28;20032;-77
2022/08/27 00:45:35;;;;;;;6.20;3.40;;;;;;;11.75;100.00;101920.81;5092701;28;20028;-77
2022/08/27 00:48:01;;;;;;;4.20;2.40;;;;;;;11.73;100.00;101921.88;5092140;28;20028;-78
2022/08/27 00:50:34;;;;;;;5.05;2.78;;;;;;;11.71;100.00;101930.00;5092489;28;20032;-78
2022/08/27 00:53:07;;;;;;;4.28;2.80;;;;;;;11.69;100.00;101920.41;5092260;28;20048;-78
2022/08/27 00:55:39;;;;;;;4.25;2.53;;;;;;;11.70;100.00;101919.47;5092720;28;20028;-78
2022/08/27 00:58:27;;;;;;;6.75;3.00;;;;;;;11.68;100.00;101921.41;5091850;28;20121;-78
2022/08/27 01:00:53;;;;;;;5.20;3.05;;;;;;;11.67;100.00;101925.03;5092184;28;20028;-78
2022/08/27 01:03:19;;;;;;;7.63;3.45;;;;;;;11.68;100.00;101924.91;5074370;28;20036;-76
2022/08/27 01:05:46;;;;;;;6.70;2.80;;;;;;;11.62;100.00;101923.56;5092411;28;20382;-77
2022/08/27 01:08:16;;;;;;;4.38;2.47;;;;;;;11.60;100.00;101922.84;5092380;28;20079;-77
2022/08/27 01:10:43;;;;;;;3.38;2.17;;;;;;;11.54;100.00;101920.66;5092280;28;20035;-77
2022/08/27 01:13:10;;;;;;;3.42;2.38;;;;;;;11.52;100.00;101933.25;5073569;28;20040;-77
2022/08/27 01:15:38;;;;;;;5.57;2.65;;;;;;;11.54;100.00;101930.47;5091834;28;20035;-77
2022/08/27 01:18:05;;;;;;;8.40;3.00;;;;;;;11.57;100.00;101925.75;5073613;28;20078;-78
2022/08/27 01:20:40;;;;;;;5.65;2.80;;;;;;;11.61;100.00;101929.03;5092104;28;20036;-78
2022/08/27 01:23:29;;;;;;;6.07;2.63;;;;;;;11.65;100.00;101926.00;5073608;28;20032;-78
2022/08/27 01:25:55;;;;;;;6.97;2.65;;;;;;;11.68;100.00;101927.56;5091422;28;20028;-77
2022/08/27 01:28:21;;;;;;;8.98;2.90;;;;;;;11.74;100.00;101929.75;5092106;28;20093;-78
2022/08/27 01:30:46;;;;;;;6.00;2.70;;;;;;;11.83;100.00;101923.69;5092256;28;20028;-78
2022/08/27 01:33:15;;;;;;;8.20;3.10;;;;;;;11.91;100.00;101925.78;5091773;28;20387;-78
2022/08/27 01:35:47;;;;;;;11.15;3.25;;;;;;;11.99;100.00;101922.53;5092254;28;20107;-78
2022/08/27 01:38:14;;;;;;;8.18;2.70;;;;;;;12.10;100.00;101924.34;5091463;28;20464;-78
2022/08/27 01:40:40;;;;;;;4.60;2.75;;;;;;;12.17;100.00;101928.22;5074019;28;20118;-78
2022/08/27 01:43:06;;;;;;;6.18;3.33;;;;;;;12.18;100.00;101921.91;5091858;28;20436;-77
2022/08/27 01:45:44;;;;;;;4.82;2.65;;;;;;;12.16;100.00;101924.69;5092009;28;20044;-78
2022/08/27 01:48:09;;;;;;;6.45;2.80;;;;;;;12.15;100.00;101922.13;5091660;28;20036;-78
2022/08/27 01:50:38;;;;;;;4.95;2.63;;;;;;;12.11;100.00;101923.38;5091756;28;20040;-79
2022/08/27 01:53:09;;;;;;;6.55;2.30;;;;;;;12.08;100.00;101923.63;5073608;28;20365;-78
2022/08/27 01:55:36;;;;;;;9.77;2.72;;;;;;;12.00;100.00;101924.22;5096156;28;20117;-78
2022/08/27 01:58:02;;;;;;;5.75;2.63;;;;;;;11.93;100.00;101921.19;5095691;28;20040;-78
2022/08/27 02:00:33;;;;;;;6.35;2.70;;;;;;;11.88;100.00;101914.50;5077783;28;20090;-78
2022/08/27 02:02:59;;;;;;;5.68;2.53;;;;;;;11.86;100.00;101916.44;5095566;28;20036;-78
2022/08/27 02:05:25;;;;;;;6.40;2.70;;;;;;;11.82;100.00;101915.81;5077645;28;20039;-78
2022/08/27 02:07:51;;;;;;;4.80;2.50;;;;;;;11.81;100.00;101914.16;5095926;28;20040;-78
2022/08/27 02:10:21;;;;;;;6.95;2.78;;;;;;;11.81;100.00;101911.47;5095475;28;20043;-78
2022/08/27 02:12:46;;;;;;;5.60;2.33;;;;;;;11.87;100.00;101916.31;5095741;28;20542;-78
2022/08/27 02:15:12;;;;;;;8.13;3.40;;;;;;;11.95;100.00;101913.91;5095237;28;20131;-79
2022/08/27 02:17:37;;;;;;;6.93;2.60;;;;;;;12.02;100.00;101911.63;5077341;28;20549;-78
2022/08/27 02:20:05;;;;;;;5.80;2.80;;;;;;;12.05;100.00;101907.88;5077218;28;20388;-78
2022/08/27 02:22:31;;;;;;;5.68;2.53;;;;;;;12.05;100.00;101907.88;5095352;28;20103;-78
2022/08/27 02:24:56;;;;;;;3.97;2.33;;;;;;;12.03;100.00;101917.78;5095545;28;20130;-82
2022/08/27 02:27:22;;;;;;;5.63;2.40;;;;;;;12.01;100.00;101920.59;5095595;28;20108;-78
2022/08/27 02:29:47;;;;;;;7.15;2.50;;;;;;;12.01;100.00;101909.06;5095400;28;20060;-78
2022/08/27 02:32:14;;;;;;;9.00;2.97;;;;;;;11.98;100.00;101911.00;5059942;28;20497;-76
2022/08/27 02:34:39;;;;;;;5.00;2.50;;;;;;;11.95;100.00;101900.59;5094960;28;20028;-77
2022/08/27 02:37:06;;;;;;;4.70;2.58;;;;;;;11.92;100.00;101906.13;5094473;28;20063;-78
2022/08/27 02:39:32;;;;;;;9.32;2.60;;;;;;;11.91;100.00;101903.59;5095510;28;20464;-77
2022/08/27 02:41:58;;;;;;;7.90;2.70;;;;;;;11.89;100.00;101909.03;5095241;28;20031;-77
2022/08/27 02:44:23;;;;;;;3.53;2.20;;;;;;;11.86;100.00;101900.44;5094905;28;20036;-78
2022/08/27 02:46:48;;;;;;;7.32;2.65;;;;;;;11.81;100.00;101898.16;5076644;28;20074;-77
2022/08/27 02:49:14;;;;;;;11.60;2.95;;;;;;;11.77;100.00;101902.84;5094513;28;20044;-77
2022/08/27 02:51:39;;;;;;;5.68;2.38;;;;;;;11.77;100.00;101899.34;5094790;28;20101;-77
2022/08/27 02:54:05;;;;;;;5.10;2.25;;;;;;;11.71;100.00;101894.50;5094448;28;20020;-78
2022/08/27 02:56:31;;;;;;;5.57;2.50;;;;;;;11.68;100.00;101889.41;5076790;28;20069;-79
2022/08/27 02:58:57;;;;;;;11.35;2.60;;;;;;;11.70;100.00;101890.97;5094992;28;20478;-79
2022/08/27 03:01:23;;;;;;;8.98;2.38;;;;;;;11.70;100.00;101882.13;5094248;28;20468;-79
2022/08/27 03:03:48;;;;;;;4.13;2.20;;;;;;;11.64;100.00;101887.00;5094697;28;20043;-79
2022/08/27 03:06:13;;;;;;;6.88;2.35;;;;;;;11.58;100.00;101876.78;5093489;28;20032;-80
2022/08/27 03:08:39;;;;;;;5.53;2.80;;;;;;;11.57;100.00;101888.44;5077155;28;20039;-78
2022/08/27 03:11:06;;;;;;;4.50;2.30;;;;;;;11.54;100.00;101882.47;5059617;28;20043;-79
2022/08/27 03:13:36;;;;;;;9.70;2.60;;;;;;;11.49;100.00;101877.50;5094569;28;20044;-79
2022/08/27 03:16:02;;;;;;;4.32;2.22;;;;;;;11.46;100.00;101883.94;5094714;28;20031;-77
2022/08/27 03:18:28;;;;;;;6.55;2.90;;;;;;;11.50;100.00;101887.22;5094149;28;20071;-79
2022/08/27 03:20:55;;;;;;;3.92;2.50;;;;;;;11.58;100.00;101887.44;5094205;28;20059;-78
2022/08/27 03:23:26;;;;;;;5.97;2.30;;;;;;;11.65;100.00;101883.34;5075890;28;20489;-77
2022/08/27 03:25:54;;;;;;;7.07;2.55;;;;;;;11.75;100.00;101887.97;5075942;28;20498;-78
2022/08/27 03:28:22;;;;;;;4.85;2.40;;;;;;;11.83;100.00;101880.19;5093660;28;20035;-79
2022/08/27 03:30:53;;;;;;;6.55;2.53;;;;;;;11.88;100.00;101882.50;5094036;28;20032;-79
2022/08/27 03:33:20;;;;;;;5.47;2.10;;;;;;;11.88;100.00;101887.81;5094018;28;20107;-79
2022/08/27 03:35:46;;;;;;;6.82;3.20;;;;;;;11.86;100.00;101893.28;5094167;28;20138;-80
2022/08/27 03:38:13;;;;;;;8.55;2.58;;;;;;;11.81;100.00;101883.00;5093553;28;20028;-79
2022/08/27 03:40:38;;;;;;;7.82;2.65;;;;;;;11.81;100.00;101884.81;5093784;28;20089;-79
2022/08/27 03:43:04;;;;;;;5.75;2.60;;;;;;;11.71;100.00;101878.50;5093807;28;20031;-79
2022/08/27 03:45:29;;;;;;;5.25;2.03;;;;;;;11.65;100.00;101883.34;5093273;28;20101;-78
2022/08/27 03:47:55;;;;;;;2.90;2.10;;;;;;;11.63;100.00;101879.97;5075462;28;20524;-78
2022/08/27 03:50:21;;;;;;;4.93;2.38;;;;;;;11.63;100.00;101887.13;5075120;28;20039;-78
2022/08/27 03:52:46;;;;;;;10.10;2.42;;;;;;;11.67;100.00;101877.03;5093695;28;20032;-77
2022/08/27 03:55:13;;;;;;;5.25;2.30;;;;;;;11.70;100.00;101882.13;5093156;28;20032;-79
2022/08/27 03:57:38;;;;;;;3.33;2.22;;;;;;;11.71;100.00;101881.19;5093348;28;20031;-78
2022/08/27 04:00:06;;;;;;;3.20;2.05;;;;;;;11.68;100.00;101879.59;5075396;28;20043;-79
2022/08/27 04:02:31;;;;;;;6.40;2.40;;;;;;;11.74;100.00;101881.78;5092915;28;20042;-79
2022/08/27 04:04:57;;;;;;;4.22;2.63;;;;;;;11.81;100.00;101871.47;5093691;28;20036;-78
2022/08/27 04:07:22;;;;;;;6.15;2.60;;;;;;;11.91;100.00;101882.25;5075133;28;20080;-78
2022/08/27 04:09:47;;;;;;;5.53;2.58;;;;;;;12.03;100.00;101881.28;5093509;28;20522;-78
2022/08/27 04:12:13;;;;;;;6.43;2.40;;;;;;;12.14;100.00;101877.78;5074808;28;20403;-78
2022/08/27 04:14:38;;;;;;;7.30;2.40;;;;;;;12.24;100.00;101881.41;5093442;28;20024;-78
2022/08/27 04:17:05;;;;;;;3.85;2.17;;;;;;;12.34;100.00;101876.16;5092033;28;20052;-77
2022/08/27 04:19:32;;;;;;;9.35;2.70;;;;;;;12.44;100.00;101877.09;5074881;28;20048;-78
2022/08/27 04:22:03;;;;;;;7.28;2.63;;;;;;;12.55;100.00;101876.19;5074864;28;20115;-78
2022/08/27 04:24:30;;;;;;;;;;;;;;;12.63;100.00;101875.56;5093232;28;20024;-77
2022/08/27 04:26:55;;;;;;;3.53;2.15;;;;;;;12.71;100.00;101875.78;5093197;28;20045;-78
2022/08/27 04:29:21;;;;;;;3.63;2.35;;;;;;;12.79;100.00;101888.50;5092514;28;20110;-79
2022/08/27 04:31:46;;;;;;;5.50;2.33;;;;;;;12.83;100.00;101876.59;5074767;28;20024;-78
2022/08/27 04:34:12;;;;;;;5.85;2.47;;;;;;;12.87;100.00;101880.69;5092631;28;20078;-78
2022/08/27 04:36:37;;;;;;;7.18;2.30;;;;;;;12.87;100.00;101891.38;5092952;28;20051;-78
2022/08/27 04:39:03;;;;;;;5.10;2.08;;;;;;;12.82;100.00;101885.56;5092935;28;20178;-78
2022/08/27 04:41:32;;;;;;;5.57;2.10;;;;;;;12.73;100.00;101881.00;5092640;28;20043;-77
2022/08/27 04:44:03;;;;;;;3.53;1.90;;;;;;;12.63;100.00;101880.91;5059426;28;20464;-79
2022/08/27 04:46:31;;;;;;;6.50;2.30;;;;;;;12.55;100.00;101886.88;5074251;28;20043;-78
2022/08/27 04:48:58;;;;;;;4.95;1.90;;;;;;;12.48;100.00;101888.34;5092817;28;20024;-78
2022/08/27 04:51:25;;;;;;;5.13;1.90;;;;;;;12.41;100.00;101897.88;5092313;28;20027;-78
2022/08/27 04:53:51;;;;;;;3.30;1.95;;;;;;;12.39;100.00;101897.13;5092691;28;20181;-78
2022/08/27 04:56:20;;;;;;;8.02;2.38;;;;;;;12.40;100.00;101891.66;5073901;28;20488;-78
2022/08/27 04:58:46;;;;;;;6.95;2.35;;;;;;;12.47;100.00;101895.53;5074395;28;20020;-78
2022/08/27 05:01:19;;;;;;;4.20;2.22;;;;;;;12.52;100.00;101890.69;5074566;28;20047;-79
2022/08/27 05:03:45;;;;;;;7.28;2.33;;;;;;;12.62;100.00;101889.91;5092667;28;20028;-79
2022/08/27 05:06:11;;;;;;;3.17;2.00;;;;;;;12.70;100.00;101898.97;5092364;28;20024;-79
2022/08/27 05:08:38;;;;;;;3.40;2.00;;;;;;;12.81;100.00;101897.25;5091956;28;20024;-79
2022/08/27 05:11:06;;;;;;;4.72;2.13;;;;;;;12.92;100.00;101899.84;5074429;28;20056;-80
2022/08/27 05:13:31;;;;;;;4.35;2.10;;;;;;;13.03;100.00;101907.81;5092113;28;20118;-79
2022/08/27 05:16:04;;;;;;;3.50;1.85;;;;;;;13.11;100.00;101914.34;5092726;28;20527;-78
2022/08/27 05:18:30;;;;;;;5.20;2.00;;;;;;;13.21;100.00;101912.56;5092031;28;20094;-78
2022/08/27 05:20:57;;;;;;;5.30;2.08;;;;;;;13.29;100.00;101918.13;5074406;28;20028;-78
2022/08/27 05:23:23;;;;;;;11.23;2.30;;;;;;;13.39;100.00;101919.06;5073750;28;20043;-78
2022/08/27 05:25:50;;;;;;;5.55;2.10;;;;;;;13.48;100.00;101921.91;5092030;28;20035;-78
2022/08/27 05:28:20;;;;;;;9.07;2.28;;;;;;;13.54;100.00;101924.06;5073845;28;20032;-79
2022/08/27 05:30:48;;;;;;;6.35;2.38;;;;;;;13.60;100.00;101920.00;5074169;28;20210;-78
2022/08/27 05:33:16;;;;;;;7.40;2.08;;;;;;;13.66;100.00;101914.13;5073948;28;20387;-77
2022/08/27 05:35:57;;;;;;;3.47;2.00;;;;;;;13.69;100.00;101914.72;5091797;28;20472;-78
2022/08/27 05:38:23;;;;;;;6.88;2.40;;;;;;;13.73;100.00;101918.84;5091538;28;20085;-78
2022/08/27 05:40:50;;;;;;;3.60;1.70;;;;;;;13.79;100.00;101920.09;5092167;28;20039;-78
2022/08/27 05:43:17;;;;;;;4.88;2.00;;;;;;;13.83;100.00;101923.38;5092488;28;20036;-77
2022/08/27 05:45:48;;;;;;;3.45;1.80;;;;;;;13.85;100.00;101924.94;5091640;28;20028;-77
2022/08/27 05:48:15;;;;;;;7.13;2.42;;;;;;;13.91;100.00;101918.19;5092076;28;20496;-79
2022/08/27 05:50:42;;;;;;;5.47;1.90;;;;;;;13.93;100.00;101910.91;5073354;28;20476;-78
2022/08/27 05:53:10;;;;;;;4.95;2.50;;;;;;;13.98;100.00;101915.84;5073765;28;20032;-79
2022/08/27 05:55:41;;;;;;;5.40;2.13;;;;;;;14.04;100.00;101921.47;5091687;28;20032;-78
2022/08/27 06:01:03;;;;;;;17.60;2.75;;;;;;;14.07;100.00;101918.53;5091767;28;20031;-78
2022/08/27 06:01:05;;;;;;;3.17;2.00;;;;;;;14.14;100.00;101920.66;5091836;28;20087;-77
2022/08/27 06:03:32;;;;;;;5.18;1.98;;;;;;;14.19;100.00;101913.09;5091241;28;20077;-77
2022/08/27 06:06:03;;;;;;;4.85;1.80;;;;;;;14.25;100.00;101909.84;5091778;28;20476;-78
2022/08/27 06:08:28;;;;;;;4.70;1.83;;;;;;;14.30;100.00;101910.28;5091565;28;20032;-78
2022/08/27 06:10:55;;;;;;;2.58;1.70;;;;;;;14.39;100.00;101913.97;5092254;28;20032;-78
2022/08/27 06:13:20;;;;;;;6.45;2.08;;;;;;;14.49;100.00;101911.31;5091856;28;20468;-78
2022/08/27 06:15:46;;;;;;;3.95;1.65;;;;;;;14.56;100.00;101909.78;5091462;28;20049;-79
2022/08/27 06:18:12;;;;;;;3.63;1.80;;;;;;;14.65;100.00;101910.81;5091444;28;20048;-78
2022/08/27 06:20:37;;;;;;;5.30;1.77;;;;;;;14.73;100.00;101914.47;5056960;28;20024;-79
2022/08/27 06:23:03;;;;;;;4.20;1.95;;;;;;;14.83;100.00;101910.97;5091736;28;20115;-78
2022/08/27 06:25:31;;;;;;;4.60;1.90;;;;;;;14.93;100.00;101915.31;5073111;28;20028;-78
2022/08/27 06:27:56;;;;;;;10.98;2.20;;;;;;;15.05;100.00;101912.47;5091614;28;20058;-78
2022/08/27 06:30:21;;;;;;;4.85;1.92;;;;;;;15.20;100.00;101902.16;5073459;28;20415;-78
2022/08/27 06:32:47;;;;;;;8.50;2.28;;;;;;;15.34;100.00;101909.75;5073183;28;20028;-78
2022/08/27 06:35:12;;;;;;;5.30;2.05;;;;;;;15.49;100.00;101913.66;5091799;28;20114;-78
2022/08/27 06:37:38;;;;;;;7.82;2.20;;;;;;;15.64;100.00;101906.00;5073147;28;20054;-79
2022/08/27 06:40:03;;;;;;;5.45;2.50;;;;;;;15.76;100.00;101917.41;5092174;28;20043;-79
2022/08/27 06:42:30;;;;;;;6.40;2.00;;;;;;;15.85;100.00;101911.19;5076555;28;20115;-78
2022/08/27 06:44:55;;;;;;;7.32;2.47;;;;;;;15.93;100.00;101912.28;5095341;28;20032;-79
2022/08/27 06:47:21;;;;;;;4.40;2.05;;;;;;;16.03;100.00;101918.44;5060592;28;20093;-77
2022/08/27 06:49:46;;;;;;;11.10;2.40;;;;;;;16.12;100.00;101911.34;5094693;28;20036;-78
2022/08/27 06:52:13;;;;;;;4.93;2.35;;;;;;;16.19;100.00;101913.28;5095389;28;20028;-76
2022/08/27 06:54:39;;;;;;;9.00;2.33;;;;;;;16.24;100.00;101912.81;5076210;28;20043;-78
2022/08/27 06:57:04;;;;;;;5.13;2.53;;;;;;;16.25;100.00;101902.94;5095119;28;20117;-78
2022/08/27 06:59:30;;;;;;;7.38;2.80;;;;;;;16.23;100.00;101913.84;5094404;28;20043;-80
2022/08/27 07:01:55;;;;;;;5.22;2.30;;;;;;;16.20;100.00;101920.34;5076861;28;20467;-79
2022/08/27 07:04:23;;;;;;;3.97;2.03;;;;;;;16.24;100.00;101920.03;5095435;28;20417;-78
2022/08/27 07:06:49;;;;;;;4.80;2.22;;;;;;;16.32;100.00;101912.94;5094629;28;20406;-79
2022/08/27 07:09:15;;;;;;;6.57;2.28;;;;;;;16.48;100.00;101914.97;5094877;28;20028;-78
2022/08/27 07:11:41;;;;;;;4.60;2.08;;;;;;;16.67;100.00;101915.81;5094661;28;20032;-79
2022/08/27 07:14:08;;;;;;;7.68;2.42;;;;;;;16.84;100.00;101917.66;5095104;28;20102;-78
2022/08/27 07:16:33;;;;;;;4.25;2.10;;;;;;;17.03;100.00;101916.69;5094263;28;20055;-79
2022/08/27 07:19:01;;;;;;;6.00;2.17;;;;;;;17.22;100.00;101920.16;5076694;28;20420;-79
2022/08/27 07:21:27;;;;;;;5.85;1.98;;;;;;;17.41;99.26;101919.97;5094286;28;20024;-79
2022/08/27 07:23:55;;;;;;;6.13;2.33;;;;;;;17.60;95.65;101923.44;5075993;28;20043;-78
2022/08/27 07:26:22;;;;;;;5.68;2.90;;;;;;;17.69;90.54;101925.19;5094220;28;20135;-78
2022/08/27 07:28:48;;;;;;;4.40;1.83;;;;;;;17.90;91.87;101923.97;5075857;28;20102;-79
2022/08/27 07:31:16;;;;;;;6.35;2.38;;;;;;;18.07;92.71;101923.03;5094068;28;20073;-77
2022/08/27 07:33:42;;;;;;;4.72;2.35;;;;;;;18.20;90.85;101927.97;5093548;28;20059;-77
2022/08/27 07:36:08;;;;;;;5.65;2.03;;;;;;;18.27;89.16;101920.06;5094246;28;20472;-78
2022/08/27 07:38:35;;;;;;;8.25;2.20;;;;;;;18.36;88.57;101929.84;5093666;28;20036;-76
2022/08/27 07:41:08;;;;;;;6.55;2.08;;;;;;;18.39;88.35;101936.78;5094022;28;20031;-77
2022/08/27 07:46:20;;;;;;;4.65;1.83;;;;;;;18.41;86.45;101941.00;5078952;28;20105;-79
2022/08/27 07:48:46;;;;;;;4.38;2.00;;;;;;;18.46;86.65;101937.81;5075690;28;20039;-80
2022/08/27 07:51:14;;;;;;;6.47;2.17;;;;;;;18.54;84.64;101924.38;5093779;28;20036;-78
2022/08/27 07:53:39;;;;;;;5.57;2.00;;;;;;;18.70;85.68;101936.19;5093294;28;20093;-78
2022/08/27 07:56:06;;;;;;;6.78;2.30;;;;;;;18.80;82.66;101931.47;5058643;28;20397;-79
2022/08/27 07:58:33;;;;;;;4.55;2.08;;;;;;;18.97;83.13;101935.06;5093219;28;20028;-78
2022/08/27 08:00:58;;;;;;;7.45;2.00;;;;;;;19.11;81.98;101933.53;5093015;28;20478;-78
2022/08/27 08:03:24;;;;;;;3.67;1.98;;;;;;;19.23;80.10;101937.59;5093193;28;20083;-78
2022/08/27 08:05:52;;;;;;;3.70;2.00;;;;;;;19.53;78.58;101937.88;5058254;28;20040;-78
2022/08/27 08:08:18;;;;;;;5.13;2.00;;;;;;;19.83;74.75;101943.59;5093177;28;20119;-77
2022/08/27 08:10:44;;;;;;;5.20;2.05;;;;;;;20.02;75.04;101951.28;5092551;28;20390;-77
2022/08/27 08:13:09;;;;;;;5.72;2.42;;;;;;;20.23;73.66;101949.84;5093088;28;20032;-77
2022/08/27 08:15:34;;;;;;;3.63;1.90;;;;;;;20.33;73.00;101953.19;5093152;28;20032;-77
2022/08/27 08:18:00;;;;;;;8.35;2.63;;;;;;;20.36;70.48;101955.53;5092551;28;20057;-78
2022/08/27 08:20:25;;;;;;;5.30;2.08;;;;;;;20.51;70.48;101952.91;5093265;28;20516;-78
2022/08/27 08:22:51;;;;;;;4.53;2.00;;;;;;;20.65;71.19;101950.47;5074556;28;20384;-77
2022/08/27 08:25:16;;;;;;;4.50;1.90;;;;;;;20.94;69.43;101945.22;5092759;28;20028;-78
2022/08/27 08:27:42;;;;;;;6.65;2.22;;;;;;;21.22;70.09;101947.31;5074209;28;20031;-77
2022/08/27 08:30:09;;;;;;;5.82;2.28;;;;;;;22.01;64.50;101956.88;5092502;28;20119;-77
2022/08/27 08:32:35;;;;;;;3.05;1.90;;;;;;;22.78;58.70;101950.09;5092702;28;20035;-77
2022/08/27 08:35:00;;;;;;;4.47;1.90;;;;;;;23.03;59.63;101958.63;5092694;28;20036;-76
2022/08/27 08:37:26;;;;;;;6.22;1.80;;;;;;;22.60;56.51;101955.94;5074344;28;20032;-77
2022/08/27 08:39:53;;;;;;;6.22;1.65;;;;;;;22.40;60.81;101965.72;5074243;28;20460;-77
2022/08/27 08:42:44;;;;;;;3.28;1.52;;;;;;;22.62;59.46;101958.47;5092808;28;20039;-76
2022/08/27 08:45:15;;;;;;;2.20;1.42;;;;;;;22.98;53.25;101949.44;5092865;28;20464;-77
2022/08/27 08:47:46;;;;;;;4.68;1.52;;;;;;;23.47;50.87;101954.03;5092532;28;20040;-88
2022/08/27 08:50:27;;;;;;;6.95;1.60;;;;;;;23.63;48.20;101955.59;5092238;28;20036;-77
2022/08/27 08:53:00;;;;;;;2.38;1.60;;;;;;;23.38;50.55;101957.94;5092365;28;20035;-77
2022/08/27 08:55:46;;;;;;;7.35;2.00;;;;;;;23.00;49.55;101958.22;5092702;28;20455;-77
2022/08/27 08:58:44;;;;;;;5.05;1.50;;;;;;;22.62;52.71;101963.91;5074266;28;20032;-78
2022/08/27 09:01:14;;;;;;;4.47;1.50;;;;;;;22.08;51.26;101954.22;5092659;28;20031;-77
2022/08/27 09:03:43;;;;;;;2.45;1.40;;;;;;;21.76;54.08;101967.97;5091822;28;20406;-77
2022/08/27 09:06:26;;;;;;;5.10;1.60;;;;;;;21.45;59.02;101963.53;5092487;28;20024;-77
2022/08/27 09:08:52;;;;;;;4.65;1.80;;;;;;;21.27;55.60;101969.28;5092020;28;20498;-77
2022/08/27 09:11:32;;;;;;;3.58;1.70;;;;;;;21.05;58.65;101962.88;5092392;28;20020;-77
2022/08/27 09:14:01;;;;;;;5.22;1.67;;;;;;;20.94;59.35;101966.00;5091834;28;20063;-76
2022/08/27 09:16:27;;;;;;;6.00;2.10;;;;;;;20.86;58.17;101969.59;5091436;28;20028;-77
2022/08/27 09:18:53;;;;;;;5.78;1.73;;;;;;;20.82;60.85;101976.38;5091637;28;20114;-76
2022/08/27 09:21:31;;;;;;;3.78;1.30;;;;;;;20.84;60.93;101976.19;5074002;28;20181;-76
2022/08/27 09:24:26;;;;;;;4.53;1.50;;;;;;;20.83;59.37;101974.53;5073729;28;20452;-76
2022/08/27 09:26:53;;;;;;;5.72;1.40;;;;;;;20.77;58.84;101974.22;5091588;28;20032;-75
2022/08/27 09:29:18;;;;;;;3.67;1.40;;;;;;;20.74;58.58;101987.28;5092639;28;20107;-75
2022/08/27 09:31:52;;;;;;;2.92;1.40;;;;;;;20.72;62.39;101982.03;5091778;28;20487;-76
2022/08/27 09:34:18;;;;;;;3.33;1.50;;;;;;;20.69;64.63;101981.53;5092111;28;20043;-75
2022/08/27 09:36:58;;;;;;;5.35;1.95;;;;;;;20.65;62.02;101983.75;5091630;28;20386;-75
2022/08/27 09:39:33;;;;;;;5.45;1.88;;;;;;;20.64;60.61;101984.75;5091938;28;20033;-75
2022/08/27 09:41:58;;;;;;;5.57;1.73;;;;;;;20.67;62.83;101986.28;5091373;28;20453;-76
2022/08/27 09:44:24;;;;;;;3.03;1.80;;;;;;;20.68;62.15;101985.28;5091979;28;20028;-75
2022/08/27 09:47:02;;;;;;;3.60;1.65;;;;;;;20.78;62.78;101985.91;5091596;28;20035;-75
2022/08/27 09:49:29;;;;;;;3.22;1.40;;;;;;;20.82;60.81;101970.97;5091890;28;20066;-73
2022/08/27 09:51:56;;;;;;;5.00;1.92;;;;;;;20.80;61.10;101977.59;5091260;28;20036;-74
2022/08/27 09:54:39;;;;;;;6.20;1.63;;;;;;;20.84;59.65;101978.91;5091530;28;20028;-73
2022/08/27 09:57:07;;;;;;;5.15;1.42;;;;;;;20.87;60.47;101975.84;5091354;28;20032;-74
2022/08/27 09:59:36;;;;;;;5.53;1.77;;;;;;;21.02;61.31;101978.59;5091256;28;20475;-75
2022/08/27 10:02:12;;;;;;;7.35;1.40;;;;;;;21.09;59.66;101975.03;5072859;28;20054;-73
2022/08/27 10:04:39;;;;;;;6.65;1.52;;;;;;;21.14;60.70;101975.31;5091653;28;20119;-73
2022/08/27 10:07:36;;;;;;;6.50;1.60;;;;;;;21.10;58.91;101973.97;5091060;28;20039;-73
2022/08/27 10:10:24;;;;;;;8.93;2.35;;;;;;;21.09;59.34;101974.16;5076785;28;20104;-73
2022/08/27 10:13:10;;;;;;;6.18;1.67;;;;;;;21.02;61.56;101976.75;5091346;28;20068;-75
2022/08/27 10:15:42;;;;;;;4.18;1.55;;;;;;;20.93;61.68;101978.69;5092714;28;20032;-75
2022/08/27 10:18:26;;;;;;;5.15;1.77;;;;;;;20.90;61.11;101970.06;5095043;28;20056;-75
2022/08/27 10:21:13;;;;;;;3.40;1.50;;;;;;;20.87;62.32;101965.88;5076677;28;20039;-80
2022/08/27 10:24:01;;;;;;;10.82;1.95;;;;;;;20.87;62.46;101968.59;5095301;28;20040;-74
2022/08/27 10:26:36;;;;;;;4.57;1.90;;;;;;;20.94;60.77;101968.69;5084076;28;20468;-74
2022/08/27 10:29:37;;;;;;;5.53;1.40;;;;;;;21.08;59.00;101976.03;5094893;28;20028;-75
2022/08/27 10:32:25;;;;;;;4.13;1.33;;;;;;;21.38;60.89;101969.84;5078612;28;20024;-75
2022/08/27 10:35:03;;;;;;;5.18;1.40;;;;;;;21.74;55.03;101969.22;5095152;28;20032;-74
2022/08/27 10:37:58;;;;;;;5.97;1.63;;;;;;;22.17;54.60;101967.50;5076780;28;20488;-74
2022/08/27 10:40:30;;;;;;;11.73;1.77;;;;;;;22.77;54.63;101970.09;5085812;28;20218;-72
2022/08/27 10:43:21;;;;;;;5.82;1.85;;;;;;;23.38;53.19;101966.91;5094631;28;20028;-72
2022/08/27 10:45:50;;;;;;;10.00;1.52;;;;;;;23.85;50.21;101961.81;5064464;28;20031;-76
2022/08/27 10:48:34;;;;;;;3.30;1.42;;;;;;;24.22;47.25;101959.69;5090880;28;20040;-74
2022/08/27 10:51:18;;;;;;;6.30;1.60;;;;;;;24.54;46.56;101964.63;5094196;28;20028;-75
2022/08/27 10:53:52;;;;;;;5.28;1.60;;;;;;;24.68;44.82;101966.38;5095056;28;20090;-72
2022/08/27 10:56:39;;;;;;;4.65;1.50;;;;;;;24.79;43.60;101959.47;5094571;28;20464;-75
2022/08/27 10:59:32;;;;;;;3.55;1.50;;;;;;;24.62;43.24;101959.03;5076146;28;20381;-74
2022/08/27 11:02:27;;;;;;;4.18;1.60;;;;;;;24.95;44.03;101959.06;5094669;28;20034;-76
2022/08/27 11:04:59;;;;;;;4.18;1.55;;;;;;;24.84;44.43;101962.41;5094683;28;20032;-77
2022/08/27 11:07:37;;;;;;;6.50;1.83;;;;;;;24.97;44.03;101959.69;5094745;28;20468;-81
2022/08/27 11:10:09;;;;;;;6.60;1.70;;;;;;;25.23;43.36;101951.75;5094255;28;20165;-78
2022/08/27 11:12:43;;;;;;;4.82;1.75;;;;;;;25.45;43.55;101957.84;5095052;28;20525;-76
2022/08/27 11:15:17;;;;;;;4.85;1.58;;;;;;;25.49;42.95;101961.81;5094207;28;20103;-78
2022/08/27 11:18:04;;;;;;;4.65;1.55;;;;;;;25.45;44.64;101964.16;5076150;28;20504;-76
2022/08/27 11:20:39;;;;;;;5.28;2.25;;;;;;;25.33;44.26;101963.09;5076275;28;20364;-77
2022/08/27 11:23:09;;;;;;;3.67;1.42;;;;;;;25.23;44.27;101963.50;5094046;28;20027;-77
2022/08/27 11:25:52;;;;;;;4.53;1.65;;;;;;;25.37;46.40;101958.06;5094738;28;20028;-76
2022/08/27 11:28:28;;;;;;;3.35;1.50;;;;;;;25.22;43.56;101958.25;5093914;28;20112;-79
2022/08/27 11:31:03;;;;;;;5.90;1.60;;;;;;;25.10;44.37;101956.16;5076002;28;20028;-76
2022/08/27 11:33:49;;;;;;;2.58;1.45;;;;;;;24.91;46.09;101954.25;5076338;28;20024;-77